Time;durP1;ratioP1;P1;durP2;ratioP2;P2;SDS_P1;SDS_P2;PMS_P1;PMS_P2;Temp;Humidity;BMP_temperature;BMP_pressure;BME280_temperature;BME280_humidity;BME280_pressure;Samples;Min_cycle;Max_cycle;Signal;HPM_P1;HPM_P2
2021/05/11 00:01:51;;;;;;;12.43;11.40;;;15.10;99.90;;;;;;5080972;28;20841;-73
2021/05/11 00:04:17;;;;;;;14.43;13.43;;;15.00;99.90;;;;;;5081724;28;20481;-74
2021/05/11 00:06:43;;;;;;;15.60;14.80;;;14.90;99.90;;;;;;5081830;28;20489;-75
2021/05/11 00:09:10;;;;;;;16.10;15.03;;;14.80;99.90;;;;;;5082951;28;20465;-71
2021/05/11 00:11:37;;;;;;;17.00;15.70;;;14.70;99.90;;;;;;5077089;28;20787;-73
2021/05/11 00:14:06;;;;;;;17.90;16.47;;;14.70;99.90;;;;;;5081466;28;20454;-73
2021/05/11 00:16:32;;;;;;;19.13;17.83;;;14.60;99.90;;;;;;5082203;28;20450;-72
2021/05/11 00:19:01;;;;;;;19.63;18.17;;;14.50;99.90;;;;;;5082718;28;20459;-72
2021/05/11 00:21:27;;;;;;;20.70;19.40;;;14.50;99.90;;;;;;5083043;28;20923;-73
2021/05/11 00:23:53;;;;;;;20.40;19.17;;;14.40;99.90;;;;;;5082435;28;20971;-71
2021/05/11 00:26:20;;;;;;;22.13;20.63;;;14.40;99.90;;;;;;5076847;28;20462;-72
2021/05/11 00:28:47;;;;;;;26.07;24.07;;;14.40;99.90;;;;;;5082597;28;20480;-71
2021/05/11 00:31:13;;;;;;;26.93;24.50;;;14.40;99.90;;;;;;5081721;28;20465;-71
2021/05/11 00:33:39;;;;;;;27.50;25.07;;;14.20;99.90;;;;;;5082350;28;20605;-72
2021/05/11 00:36:07;;;;;;;28.20;25.10;;;14.10;99.90;;;;;;5086515;28;20531;-75
2021/05/11 00:38:33;;;;;;;24.60;22.60;;;14.10;99.90;;;;;;5073821;28;20463;-71
2021/05/11 00:40:59;;;;;;;24.27;22.27;;;14.00;99.90;;;;;;5081637;28;20475;-73
2021/05/11 00:43:26;;;;;;;24.30;22.27;;;13.90;99.90;;;;;;5077752;28;20470;-72
2021/05/11 00:45:54;;;;;;;24.70;22.77;;;13.80;99.90;;;;;;5084887;28;20478;-71
2021/05/11 00:48:20;;;;;;;26.20;22.77;;;13.80;99.90;;;;;;5081687;28;20462;-71
2021/05/11 00:50:47;;;;;;;24.70;22.70;;;13.70;99.90;;;;;;5078932;28;20453;-71
2021/05/11 00:53:13;;;;;;;24.93;22.60;;;13.60;99.90;;;;;;5078708;28;20987;-72
2021/05/11 00:55:40;;;;;;;26.47;23.87;;;13.60;99.90;;;;;;5082194;28;20536;-73
2021/05/11 00:58:06;;;;;;;25.70;23.60;;;13.60;99.90;;;;;;5079423;28;20486;-72
2021/05/11 01:00:33;;;;;;;25.90;23.80;;;13.50;99.90;;;;;;5083201;28;20459;-74
2021/05/11 01:03:00;;;;;;;26.43;24.20;;;13.60;99.90;;;;;;5081945;28;20465;-72
2021/05/11 01:05:27;;;;;;;26.73;24.53;;;13.60;99.90;;;;;;5080871;28;21012;-72
2021/05/11 01:07:54;;;;;;;26.83;24.43;;;13.60;99.90;;;;;;5085442;28;20841;-70
2021/05/11 01:10:20;;;;;;;25.40;23.40;;;13.60;99.90;;;;;;5077594;28;20493;-71
2021/05/11 01:12:46;;;;;;;25.43;23.23;;;13.60;99.90;;;;;;5075721;28;20472;-72
2021/05/11 01:15:14;;;;;;;26.00;23.63;;;13.60;99.90;;;;;;5077655;28;21043;-72
2021/05/11 01:17:49;;;;;;;23.83;21.93;;;13.50;99.90;;;;;;5083710;28;20545;-72
2021/05/11 01:20:26;;;;;;;23.60;21.80;;;13.50;99.90;;;;;;5082816;28;20466;-72
2021/05/11 01:23:12;;;;;;;23.37;21.47;;;13.50;99.90;;;;;;5079659;28;20461;-73
2021/05/11 01:25:40;;;;;;;24.13;21.70;;;13.50;99.90;;;;;;5074062;28;20620;-72
2021/05/11 01:28:14;;;;;;;24.10;22.00;;;13.40;99.90;;;;;;5081771;28;20876;-72
2021/05/11 01:31:11;;;;;;;32.87;21.90;;;13.40;99.90;;;;;;5086077;28;20814;-76
2021/05/11 01:47:30;;;;;;;23.07;21.10;;;13.20;99.90;;;;;;5068402;28;20542;-73
2021/05/11 01:50:05;;;;;;;23.80;21.67;;;13.20;99.90;;;;;;5075922;28;20507;-76
2021/05/11 01:52:43;;;;;;;24.90;22.27;;;13.30;99.90;;;;;;5077476;28;20505;-74
2021/05/11 01:58:42;;;;;;;34.10;22.33;;;13.30;99.90;;;;;;5064719;28;20492;-76
2021/05/11 02:23:17;;;;;;;32.77;20.87;;;13.20;99.90;;;;;;5062504;28;20490;-74
2021/05/11 02:25:43;;;;;;;36.67;22.47;;;13.20;99.90;;;;;;5079242;28;20517;-72
2021/05/11 02:28:11;;;;;;;38.47;22.10;;;13.20;99.90;;;;;;5075756;28;20506;-75
2021/05/11 02:30:37;;;;;;;26.00;21.20;;;13.20;99.90;;;;;;5079430;28;20484;-74
2021/05/11 02:33:04;;;;;;;27.40;21.47;;;13.20;99.90;;;;;;5075039;28;20835;-73
2021/05/11 02:35:30;;;;;;;32.13;21.73;;;13.20;99.90;;;;;;5081921;28;20460;-73
2021/05/11 02:37:57;;;;;;;28.77;21.10;;;13.20;99.90;;;;;;5077924;28;20541;-72
2021/05/11 02:40:24;;;;;;;28.17;21.30;;;13.20;99.90;;;;;;5079291;28;20993;-73
2021/05/11 02:42:55;;;;;;;23.53;21.10;;;13.20;99.90;;;;;;5081297;28;21030;-73
2021/05/11 02:45:22;;;;;;;25.13;20.70;;;13.20;99.90;;;;;;5073837;28;20493;-72
2021/05/11 02:47:49;;;;;;;22.57;20.27;;;13.20;99.90;;;;;;5074648;28;20455;-74
2021/05/11 02:50:17;;;;;;;39.33;20.90;;;13.10;99.90;;;;;;5079695;28;20461;-73
2021/05/11 02:52:45;;;;;;;35.17;21.83;;;13.10;99.90;;;;;;5076739;28;20462;-73
2021/05/11 02:55:12;;;;;;;36.17;20.23;;;13.10;99.90;;;;;;5078030;28;20452;-73
2021/05/11 02:57:38;;;;;;;22.50;20.30;;;13.10;99.90;;;;;;5079004;28;20537;-72
2021/05/11 03:00:07;;;;;;;22.13;20.40;;;13.20;99.90;;;;;;5078554;28;20483;-73
2021/05/11 03:02:34;;;;;;;23.33;21.23;;;13.20;99.90;;;;;;5073500;28;20496;-74
2021/05/11 03:05:01;;;;;;;23.20;20.80;;;13.20;99.90;;;;;;5075291;28;20594;-71
2021/05/11 03:07:27;;;;;;;22.37;20.57;;;13.10;99.90;;;;;;5081016;28;20462;-74
2021/05/11 03:09:54;;;;;;;22.90;20.77;;;13.10;99.90;;;;;;5081405;28;20458;-74
2021/05/11 03:12:21;;;;;;;22.90;21.00;;;13.10;99.90;;;;;;5083612;28;20474;-71
2021/05/11 03:14:47;;;;;;;22.00;20.30;;;13.10;99.90;;;;;;5083322;28;20792;-70
2021/05/11 03:17:14;;;;;;;22.60;20.63;;;13.00;99.90;;;;;;5084237;28;20458;-71
2021/05/11 03:19:41;;;;;;;26.10;21.37;;;13.00;99.90;;;;;;5081455;28;21197;-72
2021/05/11 03:22:07;;;;;;;23.27;21.37;;;13.00;99.90;;;;;;5084326;28;20483;-72
2021/05/11 03:24:35;;;;;;;22.93;20.87;;;13.00;99.90;;;;;;5075285;28;20481;-74
2021/05/11 03:27:01;;;;;;;22.13;20.50;;;13.00;99.90;;;;;;5084173;28;20896;-72
2021/05/11 03:29:27;;;;;;;21.70;19.73;;;13.00;99.90;;;;;;5082491;28;20466;-74
2021/05/11 03:31:54;;;;;;;23.60;21.37;;;13.00;99.90;;;;;;5087946;28;20982;-73
2021/05/11 03:34:20;;;;;;;23.13;20.70;;;13.00;99.90;;;;;;5081026;28;20466;-72
2021/05/11 03:36:48;;;;;;;21.97;20.27;;;13.00;99.90;;;;;;5081038;28;20514;-72
2021/05/11 03:39:14;;;;;;;17.40;16.30;;;13.00;99.90;;;;;;5074288;28;20566;-73
2021/05/11 03:41:44;;;;;;;16.40;15.60;;;13.00;99.90;;;;;;5083192;28;21025;-73
2021/05/11 03:44:12;;;;;;;15.63;14.83;;;13.00;99.90;;;;;;5085103;28;20457;-73
2021/05/11 03:46:38;;;;;;;15.20;14.50;;;13.00;99.90;;;;;;5077407;28;20894;-77
2021/05/11 03:49:08;;;;;;;15.93;15.13;;;13.00;99.90;;;;;;5081877;28;20464;-72
2021/05/11 03:51:36;;;;;;;17.27;16.33;;;13.00;99.90;;;;;;5081602;28;20463;-79
2021/05/11 03:54:04;;;;;;;15.40;14.70;;;13.10;99.90;;;;;;5081238;28;20491;-73
2021/05/11 03:56:31;;;;;;;15.50;14.80;;;13.10;99.90;;;;;;5081974;28;20493;-73
2021/05/11 03:58:57;;;;;;;15.43;14.73;;;13.10;99.90;;;;;;5083358;28;20700;-72
2021/05/11 04:01:23;;;;;;;14.80;14.10;;;13.10;99.90;;;;;;5087926;28;20461;-73
2021/05/11 04:03:50;;;;;;;15.00;14.30;;;13.20;99.90;;;;;;5080504;28;20466;-76
2021/05/11 04:06:17;;;;;;;14.93;14.23;;;13.10;99.90;;;;;;5075250;28;20498;-73
2021/05/11 04:08:44;;;;;;;15.73;14.93;;;13.10;99.90;;;;;;5081062;28;20984;-76
2021/05/11 04:11:27;;;;;;;15.23;14.50;;;13.10;99.90;;;;;;5083707;28;20499;-73
2021/05/11 04:14:16;;;;;;;15.97;15.17;;;13.10;99.90;;;;;;5083662;28;20470;-76
2021/05/11 04:16:43;;;;;;;15.90;15.10;;;13.10;99.90;;;;;;5085175;28;20461;-75
2021/05/11 04:19:09;;;;;;;15.37;14.67;;;13.00;99.90;;;;;;5080436;28;20893;-73
2021/05/11 04:21:36;;;;;;;15.57;14.80;;;13.10;99.90;;;;;;5080465;28;20455;-76
2021/05/11 04:24:04;;;;;;;16.07;15.27;;;13.00;99.90;;;;;;5081517;28;20462;-73
2021/05/11 04:26:32;;;;;;;15.97;15.17;;;13.00;99.90;;;;;;5077814;28;21234;-73
2021/05/11 04:28:59;;;;;;;15.67;14.87;;;13.00;99.90;;;;;;5084182;28;20466;-71
2021/05/11 04:31:25;;;;;;;15.60;14.80;;;13.00;99.90;;;;;;5080806;28;20462;-73
2021/05/11 04:33:52;;;;;;;15.87;15.07;;;13.00;99.90;;;;;;5077714;28;20500;-73
2021/05/11 04:36:18;;;;;;;15.80;15.00;;;13.00;99.90;;;;;;5076275;28;20501;-73
2021/05/11 04:38:45;;;;;;;15.87;15.07;;;13.00;99.90;;;;;;5085069;28;20457;-73
2021/05/11 04:41:11;;;;;;;15.90;15.10;;;13.10;99.90;;;;;;5081082;28;20461;-76
2021/05/11 04:43:39;;;;;;;16.17;15.37;;;13.00;99.90;;;;;;5085720;28;20522;-74
2021/05/11 04:46:13;;;;;;;16.60;15.80;;;12.90;99.90;;;;;;5077105;28;20523;-75
2021/05/11 04:48:40;;;;;;;16.80;15.90;;;12.80;99.90;;;;;;5081322;28;20549;-74
2021/05/11 04:51:07;;;;;;;18.00;17.00;;;12.90;99.90;;;;;;5082517;28;20467;-72
2021/05/11 04:53:33;;;;;;;16.93;16.03;;;12.90;99.90;;;;;;5083903;28;20738;-73
2021/05/11 04:56:00;;;;;;;18.07;17.10;;;12.90;99.90;;;;;;5081750;28;20811;-74
2021/05/11 04:58:26;;;;;;;16.67;15.77;;;12.90;99.90;;;;;;5081427;28;20457;-74
2021/05/11 05:01:00;;;;;;;16.83;15.93;;;12.90;99.90;;;;;;5081909;28;20466;-71
2021/05/11 05:03:27;;;;;;;17.00;16.10;;;12.90;99.90;;;;;;5076173;28;20457;-73
2021/05/11 05:05:54;;;;;;;17.10;16.20;;;13.00;99.90;;;;;;5073441;28;20984;-72
2021/05/11 05:08:20;;;;;;;17.20;16.30;;;13.00;99.90;;;;;;5083538;28;20459;-77
2021/05/11 05:10:46;;;;;;;16.50;15.60;;;13.00;99.90;;;;;;5082914;28;20466;-74
2021/05/11 05:13:19;;;;;;;16.73;15.83;;;13.10;99.90;;;;;;5077466;28;20461;-76
2021/05/11 05:15:45;;;;;;;16.50;15.60;;;13.20;99.90;;;;;;5079933;28;20455;-77
2021/05/11 05:18:12;;;;;;;17.17;16.27;;;13.30;99.90;;;;;;5080478;28;20473;-73
2021/05/11 05:20:39;;;;;;;16.80;15.90;;;13.30;99.90;;;;;;5080389;28;20458;-73
2021/05/11 05:23:05;;;;;;;16.33;15.43;;;13.40;99.90;;;;;;5079825;28;20526;-74
2021/05/11 05:25:31;;;;;;;16.40;15.50;;;13.50;99.90;;;;;;5076219;28;20830;-73
2021/05/11 05:28:00;;;;;;;16.33;15.53;;;13.60;99.90;;;;;;5078558;28;20516;-73
2021/05/11 05:30:26;;;;;;;16.33;15.53;;;13.60;99.90;;;;;;5082088;28;20844;-76
2021/05/11 05:32:54;;;;;;;16.17;15.37;;;13.60;99.90;;;;;;5077295;28;20710;-73
2021/05/11 05:35:21;;;;;;;16.17;15.37;;;13.70;99.90;;;;;;5082655;28;21003;-73
2021/05/11 05:37:47;;;;;;;16.27;15.47;;;13.70;99.90;;;;;;5077085;28;20454;-74
2021/05/11 05:40:19;;;;;;;16.40;15.60;;;13.60;99.90;;;;;;5080217;28;20462;-73
2021/05/11 05:42:46;;;;;;;49.60;18.60;;;13.60;99.90;;;;;;5079692;28;20749;-72
2021/05/11 05:45:13;;;;;;;16.40;15.60;;;13.70;99.90;;;;;;5072659;28;20495;-72
2021/05/11 05:47:50;;;;;;;16.90;16.00;;;13.80;99.90;;;;;;5082292;28;20458;-73
2021/05/11 05:50:17;;;;;;;16.60;15.70;;;13.70;99.90;;;;;;5075142;28;20554;-77
2021/05/11 05:52:44;;;;;;;16.60;15.70;;;13.80;99.90;;;;;;5078811;28;20450;-73
2021/05/11 05:55:12;;;;;;;17.67;16.63;;;13.90;99.90;;;;;;5073135;28;20465;-72
2021/05/11 05:57:39;;;;;;;17.40;16.40;;;14.00;99.90;;;;;;5082229;28;21194;-72
2021/05/11 06:00:07;;;;;;;17.17;16.27;;;14.20;99.90;;;;;;5076109;28;20466;-74
2021/05/11 06:02:41;;;;;;;17.00;16.10;;;14.40;99.90;;;;;;5074612;28;20476;-74
2021/05/11 06:05:09;;;;;;;17.63;16.63;;;14.50;99.90;;;;;;5078456;28;21025;-73
2021/05/11 06:07:36;;;;;;;17.17;16.17;;;14.70;99.90;;;;;;5078015;28;20459;-73
2021/05/11 06:10:03;;;;;;;16.40;15.50;;;14.70;99.90;;;;;;5076010;28;20811;-73
2021/05/11 06:12:35;;;;;;;16.80;15.90;;;15.00;99.90;;;;;;5075709;28;20451;-73
2021/05/11 06:17:04;;;;;;;15.50;14.70;;;15.10;99.90;;;;;;5083490;28;20485;-73
2021/05/11 06:17:49;;;;;;;16.30;15.43;;;15.30;99.90;;;;;;5075311;28;20546;-74
2021/05/11 06:20:16;;;;;;;15.10;14.40;;;15.30;99.90;;;;;;5080779;28;20860;-74
2021/05/11 06:22:42;;;;;;;15.70;14.90;;;15.50;99.90;;;;;;5079078;28;20491;-72
2021/05/11 06:25:11;;;;;;;15.77;14.97;;;15.50;99.90;;;;;;5071401;28;20494;-74
2021/05/11 06:27:37;;;;;;;15.60;14.80;;;15.60;99.90;;;;;;5081459;28;20466;-74
2021/05/11 06:30:05;;;;;;;14.30;13.60;;;15.50;99.90;;;;;;5079060;28;20756;-77
2021/05/11 06:32:32;;;;;;;15.00;14.30;;;15.80;99.90;;;;;;5080202;28;20479;-78
2021/05/11 06:35:02;;;;;;;15.07;14.37;;;15.90;99.90;;;;;;5075589;28;20507;-74
2021/05/11 06:37:29;;;;;;;15.00;14.30;;;15.90;99.90;;;;;;5073514;28;20984;-76
2021/05/11 06:39:57;;;;;;;16.07;15.27;;;15.80;99.90;;;;;;5075080;28;20486;-74
2021/05/11 06:42:26;;;;;;;15.73;14.93;;;15.80;99.90;;;;;;5084374;28;21269;-75
2021/05/11 06:45:06;;;;;;;16.00;15.20;;;15.70;99.90;;;;;;5083093;28;20980;-75
2021/05/11 06:50:34;;;;;;;16.40;15.60;;;15.70;99.90;;;;;;5077989;28;20501;-73
2021/05/11 06:53:10;;;;;;;16.30;15.50;;;15.70;99.90;;;;;;5078956;28;20454;-72
2021/05/11 06:55:38;;;;;;;16.10;15.30;;;15.90;99.90;;;;;;5079695;28;20458;-75
2021/05/11 06:58:05;;;;;;;16.27;15.47;;;15.80;99.90;;;;;;5082474;28;20508;-73
2021/05/11 07:00:32;;;;;;;16.40;15.50;;;15.80;99.90;;;;;;5078510;28;20458;-73
2021/05/11 07:02:59;;;;;;;16.40;15.50;;;15.80;99.90;;;;;;5084952;28;20653;-74
2021/05/11 07:05:28;;;;;;;15.87;15.07;;;16.00;99.90;;;;;;5080684;28;20877;-74
2021/05/11 07:08:07;;;;;;;18.13;16.80;;;16.10;99.90;;;;;;5079073;28;20487;-74
2021/05/11 07:10:35;;;;;;;22.07;19.90;;;16.20;99.90;;;;;;5076318;28;20454;-73
2021/05/11 07:13:11;;;;;;;28.27;19.77;;;16.30;99.90;;;;;;5085695;28;20745;-73
2021/05/11 07:15:40;;;;;;;24.20;18.27;;;16.70;99.90;;;;;;5075418;28;20462;-75
2021/05/11 07:18:08;;;;;;;20.67;18.70;;;17.00;99.90;;;;;;5080221;28;20471;-74
2021/05/11 07:20:35;;;;;;;21.43;19.43;;;17.20;99.90;;;;;;5079275;28;20561;-75
2021/05/11 07:23:02;;;;;;;21.50;19.70;;;17.10;99.90;;;;;;5080833;28;20912;-72
2021/05/11 07:25:32;;;;;;;27.07;18.90;;;17.40;99.90;;;;;;5083348;28;21033;-74
2021/05/11 07:30:49;;;;;;;19.70;18.00;;;17.60;99.90;;;;;;5013639;28;20461;-73
2021/05/11 07:33:17;;;;;;;20.50;18.60;;;17.50;99.90;;;;;;5082750;28;20458;-73
2021/05/11 07:35:43;;;;;;;22.53;18.90;;;17.50;99.90;;;;;;5083919;28;20460;-73
2021/05/11 07:38:11;;;;;;;21.10;18.80;;;17.40;99.90;;;;;;5076522;28;20858;-73
2021/05/11 07:40:37;;;;;;;20.40;18.70;;;17.70;99.90;;;;;;5072147;28;20863;-73
2021/05/11 07:43:03;;;;;;;21.17;19.17;;;18.10;99.90;;;;;;5068932;28;20469;-73
2021/05/11 07:45:35;;;;;;;20.10;18.60;;;17.90;99.90;;;;;;5074976;28;20956;-73
2021/05/11 08:04:59;;;;;;;19.53;18.13;;;17.50;99.90;;;;;;5069958;28;20467;-75
2021/05/11 08:15:36;;;;;;;20.10;18.60;;;16.90;99.90;;;;;;5069200;28;20871;-74
2021/05/11 08:18:12;;;;;;;21.57;19.37;;;17.00;99.90;;;;;;5072114;28;21348;-74
2021/05/11 08:23:33;;;;;;;21.23;19.23;;;17.10;99.90;;;;;;5071931;28;20535;-75
2021/05/11 08:28:52;;;;;;;17.60;15.93;;;17.00;99.90;;;;;;5049064;28;20461;-74
2021/05/11 08:31:18;;;;;;;16.70;15.60;;;17.10;99.90;;;;;;5070431;28;20470;-76
2021/05/11 08:33:44;;;;;;;19.23;17.27;;;17.60;99.90;;;;;;5078706;28;20532;-76
2021/05/11 08:36:12;;;;;;;16.97;15.57;;;17.70;99.90;;;;;;5078827;28;20477;-74
2021/05/11 08:38:38;;;;;;;16.17;15.23;;;18.00;99.90;;;;;;5071561;28;20463;-74
2021/05/11 08:41:05;;;;;;;15.93;14.93;;;18.20;99.90;;;;;;5073630;28;20473;-78
2021/05/11 08:43:32;;;;;;;16.40;15.30;;;18.40;99.90;;;;;;5072722;28;20477;-76
2021/05/11 08:46:01;;;;;;;16.53;15.30;;;18.60;99.90;;;;;;5070509;28;20500;-75
2021/05/11 08:48:29;;;;;;;16.57;15.20;;;18.50;99.90;;;;;;5069032;28;20463;-76
2021/05/11 08:51:00;;;;;;;16.50;15.30;;;18.60;99.90;;;;;;5074465;28;20464;-74
2021/05/11 09:04:49;;;;;;;15.93;14.77;;;19.60;99.90;;;;;;5078244;28;20499;-73
2021/05/11 09:27:22;;;;;;;13.30;12.40;;;23.50;99.90;;;;;;5067630;28;20461;-74
2021/05/11 09:30:05;;;;;;;15.07;14.10;;;24.10;99.90;;;;;;5075859;28;20474;-77
2021/05/11 09:32:49;;;;;;;15.63;14.30;;;24.60;99.90;;;;;;5069716;28;20472;-74
2021/05/11 09:45:02;;;;;;;17.10;15.50;;;24.20;99.90;;;;;;5070112;28;20509;-74
2021/05/11 10:39:55;;;;;;;15.70;14.47;;;17.80;99.90;;;;;;5072498;28;20461;-76
2021/05/11 10:48:18;;;;;;;15.73;14.47;;;17.50;99.90;;;;;;5075971;28;20513;-78
2021/05/11 10:50:47;;;;;;;18.10;15.20;;;17.50;99.90;;;;;;5073454;28;20513;-76
2021/05/11 10:53:37;;;;;;;18.23;16.83;;;17.30;99.90;;;;;;5079378;28;20890;-77
2021/05/11 10:56:48;;;;;;;19.33;17.93;;;17.40;99.90;;;;;;5074350;28;20867;-75
2021/05/11 10:59:24;;;;;;;22.53;20.80;;;17.20;99.90;;;;;;5069077;28;20463;-74
2021/05/11 11:01:55;;;;;;;24.47;22.27;;;17.00;99.90;;;;;;5072852;28;21360;-74
2021/05/11 11:04:26;;;;;;;25.23;23.10;;;16.70;99.90;;;;;;5073392;28;20560;-74
2021/05/11 11:07:05;;;;;;;24.57;22.70;;;16.60;99.90;;;;;;5072462;28;20530;-74
2021/05/11 11:09:33;;;;;;;25.00;22.40;;;16.50;99.90;;;;;;5073755;28;20512;-74
2021/05/11 11:12:01;;;;;;;23.60;21.50;;;16.40;99.90;;;;;;5075593;28;20992;-75
2021/05/11 11:14:36;;;;;;;25.93;23.30;;;16.30;99.90;;;;;;5072554;28;20883;-71
2021/05/11 11:17:05;;;;;;;25.93;23.40;;;16.20;99.90;;;;;;5078825;28;20561;-72
2021/05/11 11:19:31;;;;;;;25.03;22.90;;;16.10;99.90;;;;;;5073849;28;20455;-71
2021/05/11 11:23:32;;;;;;;26.00;23.47;;;16.00;99.90;;;;;;5071664;28;20795;-72
2021/05/11 11:24:50;;;;;;;27.70;23.90;;;16.00;99.90;;;;;;5071049;28;20519;-74
2021/05/11 11:27:24;;;;;;;27.17;24.67;;;16.00;99.90;;;;;;5077329;28;20466;-75
2021/05/11 11:29:59;;;;;;;26.50;23.90;;;15.90;99.90;;;;;;5076918;28;21127;-72
2021/05/11 11:32:25;;;;;;;25.50;22.83;;;15.80;99.90;;;;;;5074549;28;20879;-76
2021/05/11 11:34:55;;;;;;;23.27;21.50;;;15.90;99.90;;;;;;5078392;28;20466;-72
2021/05/11 11:37:24;;;;;;;24.20;22.10;;;15.80;99.90;;;;;;5074607;28;21267;-72
2021/05/11 11:39:54;;;;;;;25.10;22.80;;;15.90;99.90;;;;;;5073224;28;20462;-71
2021/05/11 11:42:22;;;;;;;24.90;22.60;;;15.80;99.90;;;;;;5076364;28;20476;-72
2021/05/11 11:44:53;;;;;;;27.47;24.87;;;15.60;99.90;;;;;;5078236;28;20464;-74
2021/05/11 11:47:22;;;;;;;24.20;21.93;;;15.30;99.90;;;;;;5072674;28;20975;-76
2021/05/11 11:49:51;;;;;;;25.40;23.17;;;15.30;99.90;;;;;;5074685;28;21010;-76
2021/05/11 11:52:23;;;;;;;26.37;22.87;;;15.10;99.90;;;;;;5073072;28;21062;-77
2021/05/11 11:55:08;;;;;;;24.90;22.40;;;14.90;99.90;;;;;;5074926;28;20470;-76
2021/05/11 11:57:45;;;;;;;24.53;22.30;;;14.90;99.90;;;;;;5070226;28;20552;-76
2021/05/11 12:00:13;;;;;;;24.10;22.30;;;14.90;99.90;;;;;;5076761;28;20573;-75
2021/05/11 12:02:51;;;;;;;24.03;21.60;;;14.60;99.90;;;;;;5079105;28;20489;-74
2021/05/11 12:05:18;;;;;;;24.83;20.80;;;14.60;99.90;;;;;;5075828;28;20734;-76
2021/05/11 12:07:55;;;;;;;22.13;20.43;;;14.60;99.90;;;;;;5072494;28;20470;-77
2021/05/11 12:10:23;;;;;;;18.23;17.23;;;14.70;99.90;;;;;;5078367;28;20494;-75
2021/05/11 12:12:49;;;;;;;17.67;16.67;;;14.60;99.90;;;;;;5078489;28;20964;-76
2021/05/11 12:15:19;;;;;;;18.50;17.40;;;14.70;99.90;;;;;;5070630;28;20471;-81
2021/05/11 12:17:47;;;;;;;17.23;16.33;;;14.80;99.90;;;;;;5077095;28;20470;-76
2021/05/11 12:20:25;;;;;;;16.57;15.77;;;14.60;99.90;;;;;;5079479;28;20494;-76
2021/05/11 12:23:07;;;;;;;16.77;15.97;;;14.80;99.90;;;;;;5073157;28;20512;-77
2021/05/11 12:25:35;;;;;;;16.47;15.67;;;14.70;99.90;;;;;;5074726;28;21022;-76
2021/05/11 12:28:01;;;;;;;16.80;15.90;;;14.90;99.90;;;;;;5082771;28;20546;-77
2021/05/11 12:30:40;;;;;;;17.40;16.50;;;15.00;99.90;;;;;;5078224;28;20563;-76
2021/05/11 12:33:10;;;;;;;17.60;16.70;;;14.90;99.90;;;;;;5081085;28;20466;-77
2021/05/11 12:35:38;;;;;;;16.83;16.03;;;14.90;99.90;;;;;;5074768;28;20513;-76
2021/05/11 12:38:15;;;;;;;16.93;16.03;;;15.20;99.90;;;;;;5076565;28;20482;-76
2021/05/11 12:40:49;;;;;;;17.00;16.10;;;15.20;99.90;;;;;;5073183;28;20457;-78
2021/05/11 12:43:15;;;;;;;16.97;16.07;;;15.20;99.90;;;;;;5073279;28;20469;-78
2021/05/11 12:45:52;;;;;;;16.63;15.73;;;15.20;99.90;;;;;;5076202;28;20485;-76
2021/05/11 12:48:19;;;;;;;17.43;16.43;;;15.40;99.90;;;;;;5072586;28;20948;-79
2021/05/11 12:50:46;;;;;;;18.40;17.40;;;15.40;99.90;;;;;;5080786;28;20469;-76
2021/05/11 12:53:26;;;;;;;17.50;16.50;;;15.50;99.90;;;;;;5080930;28;20560;-79
2021/05/11 12:56:04;;;;;;;17.97;16.97;;;15.70;99.90;;;;;;5070502;28;20495;-76
2021/05/11 12:58:40;;;;;;;17.87;16.87;;;15.90;99.90;;;;;;5035988;28;20455;-76
2021/05/11 13:01:29;;;;;;;17.83;16.83;;;15.80;99.90;;;;;;5035602;28;20779;-76
2021/05/11 13:04:32;;;;;;;16.77;15.87;;;15.80;99.90;;;;;;5031504;28;20467;-76
2021/05/11 13:15:34;;;;;;;17.07;16.17;;;15.60;99.90;;;;;;5034538;28;20982;-76
2021/05/11 13:21:20;;;;;;;17.40;16.40;;;15.40;99.90;;;;;;5030347;28;20456;-75
2021/05/11 13:26:33;;;;;;;17.80;16.80;;;15.20;99.90;;;;;;5037786;28;20545;-75
2021/05/11 13:29:04;;;;;;;19.70;18.50;;;15.10;99.90;;;;;;5038003;28;20464;-76
2021/05/11 13:31:34;;;;;;;18.20;17.20;;;15.00;99.90;;;;;;5034317;28;20468;-75
2021/05/11 13:34:09;;;;;;;18.17;17.17;;;15.20;99.90;;;;;;5031636;28;20456;-75
2021/05/11 13:36:38;;;;;;;17.80;16.80;;;15.20;99.90;;;;;;5028848;28;20978;-75
2021/05/11 13:39:06;;;;;;;18.10;17.00;;;15.20;99.90;;;;;;5034701;28;20503;-75
2021/05/11 13:41:33;;;;;;;17.57;16.57;;;15.10;99.90;;;;;;5036659;28;20901;-75
2021/05/11 13:44:00;;;;;;;18.07;17.07;;;15.10;99.90;;;;;;5037710;28;20970;-75
2021/05/11 13:46:27;;;;;;;17.40;16.47;;;15.10;99.90;;;;;;5033659;28;20549;-76
2021/05/11 13:48:53;;;;;;;17.63;16.63;;;15.10;99.90;;;;;;5034666;28;20793;-75
2021/05/11 13:51:20;;;;;;;16.63;15.73;;;15.20;99.90;;;;;;5032912;28;20455;-76
2021/05/11 13:53:49;;;;;;;17.30;16.30;;;15.30;99.90;;;;;;5034059;28;20979;-76
2021/05/11 13:56:39;;;;;;;17.00;16.00;;;15.50;99.90;;;;;;5035829;28;20552;-76
2021/05/11 14:02:15;;;;;;;16.60;15.70;;;15.70;99.90;;;;;;5075618;28;20918;-76
2021/05/11 14:04:42;;;;;;;16.03;15.23;;;15.70;99.90;;;;;;5075212;28;20980;-76
2021/05/11 14:07:08;;;;;;;15.50;14.70;;;15.70;99.90;;;;;;5078547;28;20482;-76
2021/05/11 14:09:35;;;;;;;15.37;14.60;;;15.60;99.90;;;;;;5076955;28;20473;-78
2021/05/11 14:12:01;;;;;;;13.90;13.30;;;15.60;99.90;;;;;;5073640;28;21005;-78
2021/05/11 14:14:39;;;;;;;13.23;12.63;;;15.50;99.90;;;;;;5070308;28;20492;-76
2021/05/11 14:17:08;;;;;;;13.40;12.80;;;15.60;99.90;;;;;;5075532;28;20465;-76
2021/05/11 14:19:35;;;;;;;13.33;12.73;;;15.50;99.90;;;;;;5069769;28;20469;-76
2021/05/11 14:22:02;;;;;;;13.30;12.70;;;15.40;99.90;;;;;;5071569;28;20492;-76
2021/05/11 14:24:28;;;;;;;13.43;12.83;;;15.50;99.90;;;;;;5077722;28;20469;-77
2021/05/11 14:27:03;;;;;;;13.43;12.83;;;15.50;99.90;;;;;;5071564;28;20501;-78
2021/05/11 14:29:29;;;;;;;13.70;13.10;;;15.40;99.90;;;;;;5070210;28;21036;-76
2021/05/11 14:31:56;;;;;;;18.67;17.20;;;15.50;99.90;;;;;;5076549;28;21240;-77
2021/05/11 14:34:24;;;;;;;13.50;12.90;;;15.50;99.90;;;;;;5077953;28;20457;-79
2021/05/11 14:36:51;;;;;;;14.43;13.73;;;15.30;99.90;;;;;;5079247;28;20466;-77
2021/05/11 14:39:17;;;;;;;14.33;13.63;;;15.10;99.90;;;;;;5071446;28;20463;-76
2021/05/11 14:41:44;;;;;;;15.00;14.30;;;15.00;99.90;;;;;;5072142;28;20462;-76
2021/05/11 14:44:11;;;;;;;14.70;14.00;;;15.10;99.90;;;;;;5068007;28;20463;-76
2021/05/11 14:46:38;;;;;;;15.27;14.57;;;15.20;99.90;;;;;;5069788;28;21405;-76
2021/05/11 14:49:05;;;;;;;20.03;18.50;;;15.30;99.90;;;;;;5070882;28;20458;-76
2021/05/11 14:51:31;;;;;;;22.27;20.53;;;15.30;99.90;;;;;;5074192;28;20588;-79
2021/05/11 14:53:58;;;;;;;20.60;19.30;;;15.30;99.90;;;;;;5070571;28;20977;-77
2021/05/11 14:56:48;;;;;;;22.50;20.10;;;15.30;99.90;;;;;;5064613;28;21006;-78
2021/05/11 14:59:21;;;;;;;21.43;19.83;;;15.40;99.90;;;;;;5076643;28;20467;-76
2021/05/11 15:01:47;;;;;;;22.03;20.27;;;15.50;99.90;;;;;;5077691;28;20937;-77
2021/05/11 15:04:24;;;;;;;25.10;22.90;;;15.70;99.90;;;;;;5078382;28;20507;-76
2021/05/11 15:06:51;;;;;;;23.30;21.20;;;15.70;99.90;;;;;;5074352;28;20852;-76
2021/05/11 15:09:17;;;;;;;22.70;20.73;;;15.80;99.90;;;;;;5075772;28;20470;-76
2021/05/11 15:11:43;;;;;;;21.97;19.87;;;16.00;99.90;;;;;;5076675;28;20576;-76
2021/05/11 15:14:16;;;;;;;22.30;20.70;;;16.20;99.90;;;;;;5075551;28;22810;-77
2021/05/11 15:16:42;;;;;;;23.40;21.60;;;16.10;99.90;;;;;;5082387;28;20469;-75
2021/05/11 15:19:10;;;;;;;22.57;20.37;;;16.30;99.90;;;;;;5078564;28;20471;-75
2021/05/11 15:21:38;;;;;;;22.13;20.37;;;16.60;99.90;;;;;;5077377;28;20450;-75
2021/05/11 15:24:07;;;;;;;20.07;18.67;;;16.80;99.90;;;;;;5077307;28;20971;-75
2021/05/11 15:26:34;;;;;;;21.47;19.57;;;16.80;99.90;;;;;;5079887;28;20512;-75
2021/05/11 15:32:40;;;;;;;21.77;19.97;;;16.80;99.90;;;;;;5064653;28;20454;-77
2021/05/11 15:35:09;;;;;;;19.53;18.33;;;16.70;99.90;;;;;;5073700;28;20457;-74
2021/05/11 15:37:37;;;;;;;20.23;18.70;;;16.50;99.90;;;;;;5073900;28;20556;-74
2021/05/11 15:40:05;;;;;;;19.50;18.03;;;16.20;99.90;;;;;;5078490;28;20516;-74
2021/05/11 15:42:32;;;;;;;19.43;18.10;;;16.10;99.90;;;;;;5074837;28;20475;-74
2021/05/11 15:44:58;;;;;;;18.60;17.00;;;16.10;99.90;;;;;;5081931;28;20490;-74
2021/05/11 15:47:25;;;;;;;18.23;17.03;;;16.10;99.90;;;;;;5078389;28;20486;-74
2021/05/11 15:49:51;;;;;;;18.53;17.03;;;16.20;99.90;;;;;;5077956;28;20458;-76
2021/05/11 15:52:18;;;;;;;16.00;15.00;;;16.10;99.90;;;;;;5077425;28;20454;-73
2021/05/11 15:54:45;;;;;;;17.43;16.00;;;16.10;99.90;;;;;;5076718;28;20458;-73
2021/05/11 15:57:11;;;;;;;16.97;15.83;;;16.00;99.90;;;;;;5076662;28;21040;-74